createdAt,value
2018-09-23T00:01:25.797Z,13.00
2018-09-23T00:03:57.122Z,13.10
2018-09-23T00:06:26.280Z,13.10
2018-09-23T00:08:56.142Z,13.10
2018-09-23T00:11:25.651Z,13.20
2018-09-23T00:13:55.251Z,13.20
2018-09-23T00:16:24.609Z,13.20
2018-09-23T00:18:53.694Z,13.20
2018-09-23T00:21:22.809Z,13.30
2018-09-23T00:23:52.514Z,13.30
2018-09-23T00:26:21.734Z,13.30
2018-09-23T00:28:51.246Z,13.30
2018-09-23T00:31:20.208Z,13.40
2018-09-23T00:33:49.202Z,13.40
2018-09-23T00:36:18.152Z,13.40
2018-09-23T00:38:47.631Z,13.40
2018-09-23T00:41:16.548Z,13.40
2018-09-23T00:43:45.560Z,13.50
2018-09-23T00:46:14.562Z,13.40
2018-09-23T00:48:44.697Z,13.40
2018-09-23T00:51:14.123Z,13.40
2018-09-23T00:53:58.066Z,13.40
2018-09-23T00:56:27.137Z,13.40
2018-09-23T00:58:56.110Z,13.50
2018-09-23T01:01:25.721Z,13.50
2018-09-23T01:03:54.971Z,13.50
2018-09-23T01:06:23.936Z,13.50
2018-09-23T01:08:54.626Z,13.60
2018-09-23T01:11:23.885Z,13.60
2018-09-23T01:13:53.239Z,13.60
2018-09-23T01:16:22.411Z,13.70
2018-09-23T01:18:51.886Z,13.70
2018-09-23T01:21:21.722Z,13.80
2018-09-23T01:24:05.098Z,13.80
2018-09-23T01:26:34.329Z,13.80
2018-09-23T01:29:03.750Z,13.80
2018-09-23T01:31:33.010Z,13.90
2018-09-23T01:34:02.203Z,14.00
2018-09-23T01:36:31.325Z,13.90
2018-09-23T01:39:00.451Z,14.00
2018-09-23T01:41:51.116Z,14.00
2018-09-23T01:44:19.997Z,14.00
2018-09-23T01:46:50.951Z,14.00
2018-09-23T01:49:19.827Z,13.90
2018-09-23T01:51:50.577Z,14.00
2018-09-23T01:54:19.593Z,14.00
2018-09-23T01:56:48.428Z,14.20
2018-09-23T01:59:17.279Z,14.20
2018-09-23T02:01:47.561Z,14.30
2018-09-23T02:04:16.864Z,14.30
2018-09-23T02:06:45.892Z,14.40
2018-09-23T02:09:14.821Z,14.40
2018-09-23T02:11:43.650Z,14.40
2018-09-23T02:14:12.559Z,14.40
2018-09-23T02:16:41.534Z,14.40
2018-09-23T02:19:10.513Z,14.40
2018-09-23T02:21:39.383Z,14.40
2018-09-23T02:24:08.259Z,14.40
2018-09-23T02:26:37.270Z,14.40
2018-09-23T02:29:06.289Z,14.40
2018-09-23T02:31:35.116Z,14.40
2018-09-23T02:34:04.052Z,14.40
2018-09-23T02:36:32.916Z,14.30
2018-09-23T02:39:01.821Z,14.30
2018-09-23T02:41:30.739Z,14.30
2018-09-23T02:43:59.660Z,14.30
2018-09-23T02:46:28.489Z,14.20
2018-09-23T02:48:57.404Z,14.20
2018-09-23T02:51:26.328Z,14.30
2018-09-23T02:53:55.218Z,14.30
2018-09-23T02:56:24.048Z,14.40
2018-09-23T02:58:53.139Z,14.40
2018-09-23T03:01:22.053Z,14.50
2018-09-23T03:03:51.360Z,14.60
2018-09-23T03:06:20.190Z,14.60
2018-09-23T03:08:49.755Z,14.70
2018-09-23T03:11:18.686Z,14.80
2018-09-23T03:13:47.632Z,14.80
2018-09-23T03:16:16.531Z,14.90
2018-09-23T03:18:45.631Z,15.00
2018-09-23T03:21:14.955Z,15.10
2018-09-23T03:23:43.819Z,15.20
2018-09-23T03:26:12.671Z,15.20
2018-09-23T03:28:41.493Z,15.30
2018-09-23T03:31:10.411Z,15.20
2018-09-23T03:33:39.251Z,15.30
2018-09-23T03:36:08.080Z,15.20
2018-09-23T03:38:37.362Z,15.20
2018-09-23T03:41:06.191Z,15.30
2018-09-23T03:43:35.145Z,15.20
2018-09-23T03:46:03.985Z,15.20
2018-09-23T03:48:32.907Z,15.20
2018-09-23T03:51:01.812Z,15.30
2018-09-23T03:53:30.738Z,15.40
2018-09-23T03:55:59.583Z,15.30
2018-09-23T03:58:28.645Z,15.30
2018-09-23T04:00:57.609Z,15.30
2018-09-23T04:03:26.516Z,15.30
2018-09-23T04:05:55.380Z,15.40
2018-09-23T04:08:24.347Z,15.40
2018-09-23T04:10:53.177Z,15.50
2018-09-23T04:13:21.987Z,15.60
2018-09-23T04:15:50.998Z,15.70
2018-09-23T04:18:19.860Z,15.90
2018-09-23T04:20:48.700Z,16.00
2018-09-23T04:23:17.707Z,16.00
2018-09-23T04:25:46.623Z,16.00
2018-09-23T04:28:15.447Z,16.00
2018-09-23T04:30:44.371Z,16.00
2018-09-23T04:33:13.447Z,16.00
2018-09-23T04:35:42.282Z,16.00
2018-09-23T04:38:11.119Z,16.00
2018-09-23T04:40:39.951Z,16.00
2018-09-23T04:43:08.788Z,16.10
2018-09-23T04:45:37.596Z,16.20
2018-09-23T04:48:07.011Z,16.20
2018-09-23T04:50:36.402Z,16.20
2018-09-23T04:53:05.372Z,16.30
2018-09-23T04:55:35.234Z,16.30
2018-09-23T04:58:04.060Z,16.50
2018-09-23T05:00:32.931Z,16.60
2018-09-23T05:03:01.805Z,16.80
2018-09-23T05:05:30.644Z,17.00
2018-09-23T05:07:59.455Z,16.90
2018-09-23T05:10:28.331Z,17.00
2018-09-23T05:12:57.218Z,17.10
2018-09-23T05:15:26.088Z,17.20
2018-09-23T05:17:55.058Z,17.30
2018-09-23T05:20:23.879Z,17.40
2018-09-23T05:22:52.787Z,17.50
2018-09-23T05:25:21.727Z,17.50
2018-09-23T05:27:50.570Z,17.60
2018-09-23T05:30:19.415Z,17.60
2018-09-23T05:32:48.336Z,17.60
2018-09-23T05:35:17.172Z,17.70
2018-09-23T05:37:46.057Z,17.60
2018-09-23T05:40:15.048Z,17.70
2018-09-23T05:42:43.908Z,17.70
2018-09-23T05:45:12.744Z,17.70
2018-09-23T05:47:41.735Z,17.70
2018-09-23T05:50:10.730Z,17.80
2018-09-23T05:52:39.567Z,17.80
2018-09-23T05:55:08.764Z,17.80
2018-09-23T05:57:37.572Z,17.80
2018-09-23T06:00:06.695Z,17.70
2018-09-23T06:02:35.652Z,17.70
2018-09-23T06:05:04.589Z,17.70
2018-09-23T06:07:33.401Z,17.70
2018-09-23T06:10:02.242Z,17.70
2018-09-23T06:18:13.276Z,17.90
2018-09-23T06:20:42.078Z,17.90
2018-09-23T06:23:10.919Z,18.00
2018-09-23T06:25:39.760Z,18.00
2018-09-23T06:28:08.571Z,18.10
2018-09-23T06:30:37.419Z,18.10
2018-09-23T06:33:06.430Z,18.20
2018-09-23T06:35:35.349Z,18.20
2018-09-23T06:38:04.150Z,18.30
2018-09-23T06:40:32.976Z,18.30
2018-09-23T06:43:01.877Z,18.40
2018-09-23T06:45:31.727Z,18.30
2018-09-23T06:48:01.415Z,18.40
2018-09-23T06:50:32.002Z,18.40
2018-09-23T06:53:00.868Z,18.50
2018-09-23T06:55:29.703Z,18.50
2018-09-23T06:57:58.714Z,18.50
2018-09-23T07:00:27.541Z,18.60
2018-09-23T07:02:56.380Z,18.60
2018-09-23T07:05:25.267Z,18.70
2018-09-23T07:07:54.247Z,18.80
2018-09-23T07:10:24.884Z,18.80
2018-09-23T07:12:57.293Z,18.90
2018-09-23T07:15:26.176Z,18.90
2018-09-23T07:17:54.980Z,18.90
2018-09-23T07:20:23.820Z,18.90
2018-09-23T07:22:52.702Z,19.00
2018-09-23T07:25:21.517Z,19.00
2018-09-23T07:27:50.389Z,19.10
2018-09-23T07:30:19.229Z,19.10
2018-09-23T07:32:49.149Z,19.10
2018-09-23T07:35:17.997Z,19.30
2018-09-23T07:37:46.908Z,19.30
2018-09-23T07:40:15.767Z,19.30
2018-09-23T07:42:44.654Z,19.30
2018-09-23T07:45:13.539Z,19.30
2018-09-23T07:47:42.397Z,19.30
2018-09-23T07:50:11.341Z,19.30
2018-09-23T07:52:40.285Z,19.30
2018-09-23T07:55:09.162Z,19.30
2018-09-23T07:57:38.119Z,19.40
2018-09-23T08:00:07.153Z,19.50
2018-09-23T08:02:41.795Z,19.50
2018-09-23T08:05:11.902Z,19.50
2018-09-23T08:07:40.784Z,19.50
2018-09-23T08:10:09.559Z,19.50
2018-09-23T08:12:38.543Z,19.50
2018-09-23T08:15:07.677Z,19.60
2018-09-23T08:17:36.489Z,19.60
2018-09-23T08:20:05.409Z,19.60
2018-09-23T08:22:34.429Z,19.70
2018-09-23T08:25:03.345Z,19.70
2018-09-23T08:27:32.232Z,19.80
2018-09-23T08:30:02.142Z,19.80
2018-09-23T08:32:31.048Z,19.80
2018-09-23T08:34:59.848Z,19.90
2018-09-23T08:37:28.834Z,19.90
2018-09-23T08:39:57.653Z,20.00
2018-09-23T08:42:26.532Z,20.10
2018-09-23T08:44:55.288Z,20.10
2018-09-23T08:47:24.326Z,20.10
2018-09-23T08:49:53.298Z,20.20
2018-09-23T08:52:30.163Z,20.30
2018-09-23T08:54:59.113Z,20.30
2018-09-23T08:57:28.303Z,20.30
2018-09-23T08:59:57.895Z,20.30
2018-09-23T09:02:28.557Z,20.40
2018-09-23T09:05:00.235Z,20.50
2018-09-23T09:07:30.132Z,20.50
2018-09-23T09:10:02.096Z,20.60
2018-09-23T09:12:35.606Z,20.70
2018-09-23T09:15:10.909Z,20.70
2018-09-23T09:17:39.835Z,20.90
2018-09-23T09:20:08.740Z,21.00
2018-09-23T09:22:37.716Z,21.00
2018-09-23T09:25:06.917Z,21.00
2018-09-23T09:27:36.011Z,21.00
2018-09-23T09:30:12.082Z,21.00
2018-09-23T09:32:42.097Z,21.00
2018-09-23T09:35:11.277Z,21.10
2018-09-23T09:37:40.605Z,21.10
2018-09-23T09:40:09.597Z,21.10
2018-09-23T09:42:38.492Z,21.20
2018-09-23T09:45:07.503Z,21.50
2018-09-23T09:47:36.347Z,21.70
2018-09-23T09:50:05.320Z,21.70
2018-09-23T09:52:34.266Z,21.80
2018-09-23T09:55:03.213Z,21.90
2018-09-23T09:57:32.100Z,22.10
2018-09-23T10:00:00.981Z,22.20
2018-09-23T10:02:29.786Z,22.40
2018-09-23T10:04:58.615Z,22.50
2018-09-23T10:07:27.449Z,22.40
2018-09-23T10:09:56.297Z,22.40
2018-09-23T10:12:32.808Z,22.30
2018-09-23T10:15:01.784Z,22.20
2018-09-23T10:17:30.590Z,22.20
2018-09-23T10:19:59.391Z,22.20
2018-09-23T10:22:28.460Z,22.30
2018-09-23T10:24:57.283Z,22.20
2018-09-23T10:27:26.899Z,22.30
2018-09-23T10:29:55.751Z,22.20
2018-09-23T10:32:24.556Z,22.30
2018-09-23T10:34:53.924Z,22.30
2018-09-23T10:37:24.759Z,22.40
2018-09-23T10:39:53.628Z,22.40
2018-09-23T10:42:22.470Z,22.30
2018-09-23T10:44:51.460Z,22.30
2018-09-23T10:47:20.295Z,22.30
2018-09-23T10:49:49.117Z,22.30
2018-09-23T10:52:17.935Z,22.40
2018-09-23T10:54:47.184Z,22.40
2018-09-23T10:57:16.089Z,22.50
2018-09-23T10:59:45.589Z,22.70
2018-09-23T11:02:14.469Z,22.60
2018-09-23T11:04:43.361Z,22.70
2018-09-23T11:07:12.267Z,22.90
2018-09-23T11:09:41.057Z,22.80
2018-09-23T11:12:09.877Z,22.80
2018-09-23T11:14:38.770Z,22.90
2018-09-23T11:17:07.597Z,22.90
2018-09-23T11:19:36.410Z,23.00
2018-09-23T11:22:05.289Z,23.20
2018-09-23T11:24:34.117Z,23.50
2018-09-23T11:27:02.964Z,23.50
2018-09-23T11:29:32.128Z,23.70
2018-09-23T11:32:01.174Z,23.60
2018-09-23T11:34:30.007Z,23.90
2018-09-23T11:37:05.627Z,23.90
2018-09-23T11:39:34.449Z,23.90
2018-09-23T11:42:03.283Z,23.60
2018-09-23T11:44:32.064Z,23.70
2018-09-23T11:47:00.909Z,23.70
2018-09-23T11:49:29.764Z,23.60
2018-09-23T11:51:58.803Z,23.70
2018-09-23T11:54:27.656Z,23.70
2018-09-23T11:56:56.523Z,23.70
2018-09-23T11:59:25.342Z,23.70
2018-09-23T12:01:56.070Z,23.60
2018-09-23T12:04:24.877Z,23.50
2018-09-23T12:06:53.696Z,23.50
2018-09-23T12:09:22.525Z,23.40
2018-09-23T12:11:51.485Z,23.40
2018-09-23T12:14:20.269Z,23.40
2018-09-23T12:16:49.075Z,23.50
2018-09-23T12:19:17.970Z,23.60
2018-09-23T12:21:46.790Z,23.60
2018-09-23T12:24:15.627Z,23.90
2018-09-23T12:26:44.558Z,24.20
2018-09-23T12:29:13.445Z,24.50
2018-09-23T12:31:42.249Z,24.60
2018-09-23T12:34:11.084Z,24.60
2018-09-23T12:36:39.892Z,24.80
2018-09-23T12:39:10.308Z,24.90
2018-09-23T12:41:39.140Z,25.20
2018-09-23T12:44:08.336Z,25.00
2018-09-23T12:46:37.178Z,25.00
2018-09-23T12:49:06.170Z,24.90
2018-09-23T12:51:35.011Z,24.90
2018-09-23T12:54:04.021Z,25.10
2018-09-23T12:56:32.865Z,25.20
2018-09-23T12:59:02.823Z,24.80
2018-09-23T13:01:31.643Z,24.60
2018-09-23T13:04:00.507Z,24.40
2018-09-23T13:06:29.352Z,24.50
2018-09-23T13:08:58.187Z,24.40
2018-09-23T13:11:27.044Z,24.20
2018-09-23T13:13:56.052Z,24.20
2018-09-23T13:16:24.943Z,24.50
2018-09-23T13:18:53.841Z,24.60
2018-09-23T13:21:22.696Z,24.80
2018-09-23T13:23:51.501Z,24.90
2018-09-23T13:26:20.369Z,25.10
2018-09-23T13:28:49.240Z,24.90
2018-09-23T13:31:18.495Z,24.80
2018-09-23T13:33:47.300Z,24.60
2018-09-23T13:36:17.160Z,24.80
2018-09-23T13:38:47.066Z,25.00
2018-09-23T13:41:15.965Z,25.00
2018-09-23T13:43:45.070Z,25.00
2018-09-23T13:46:14.008Z,24.80
2018-09-23T13:48:49.935Z,24.40
2018-09-23T13:51:18.816Z,24.40
2018-09-23T13:53:47.655Z,24.30
2018-09-23T13:56:16.451Z,24.40
2018-09-23T13:58:46.413Z,24.60
2018-09-23T14:01:15.247Z,24.90
2018-09-23T14:03:48.659Z,25.00
2018-09-23T14:06:17.562Z,25.00
2018-09-23T14:08:46.441Z,24.60
2018-09-23T14:11:15.499Z,24.40
2018-09-23T14:13:44.306Z,24.20
2018-09-23T14:16:13.101Z,24.10
2018-09-23T14:18:41.951Z,24.00
2018-09-23T14:21:12.001Z,23.90
2018-09-23T14:23:40.908Z,23.80
2018-09-23T14:26:09.911Z,23.70
2018-09-23T14:28:38.858Z,23.90
2018-09-23T14:31:08.770Z,24.20
2018-09-23T14:33:37.716Z,24.50
2018-09-23T14:36:06.584Z,24.70
2018-09-23T14:38:35.610Z,24.70
2018-09-23T14:41:05.709Z,24.60
2018-09-23T14:43:34.632Z,25.00
2018-09-23T14:46:05.718Z,25.00
2018-09-23T14:48:34.556Z,24.70
2018-09-23T14:51:03.453Z,24.80
2018-09-23T14:53:32.413Z,25.00
2018-09-23T14:56:01.261Z,25.00
2018-09-23T14:58:30.173Z,25.00
2018-09-23T15:00:59.046Z,25.10
2018-09-23T15:03:28.379Z,25.00
2018-09-23T15:05:57.356Z,24.80
2018-09-23T15:08:26.268Z,24.80
2018-09-23T15:10:55.304Z,25.00
2018-09-23T15:13:24.164Z,24.90
2018-09-23T15:15:53.441Z,24.80
2018-09-23T15:18:22.361Z,24.80
2018-09-23T15:20:53.433Z,24.70
2018-09-23T15:23:22.273Z,24.80
2018-09-23T15:25:52.096Z,24.70
2018-09-23T15:28:21.370Z,24.40
2018-09-23T15:31:04.044Z,24.20
2018-09-23T15:33:32.986Z,24.20
2018-09-23T15:41:52.734Z,23.90
2018-09-23T15:44:22.134Z,23.90
2018-09-23T15:46:52.049Z,23.80
2018-09-23T15:49:21.064Z,24.00
2018-09-23T15:51:50.130Z,24.20
2018-09-23T15:54:19.418Z,24.30
2018-09-23T15:56:48.524Z,24.10
2018-09-23T15:59:17.509Z,23.90
2018-09-23T16:01:46.797Z,23.90
2018-09-23T16:04:15.619Z,23.70
2018-09-23T16:06:44.555Z,23.70
2018-09-23T16:09:15.669Z,23.70
2018-09-23T16:11:51.999Z,23.70
2018-09-23T16:14:23.643Z,23.80
2018-09-23T16:17:14.119Z,24.00
2018-09-23T16:22:42.182Z,24.00
2018-09-23T16:25:20.860Z,23.90
2018-09-23T16:27:55.491Z,23.70
2018-09-23T16:30:24.891Z,23.60
2018-09-23T16:32:55.949Z,23.50
2018-09-23T16:35:27.066Z,23.40
2018-09-23T16:37:57.438Z,23.40
2018-09-23T16:40:28.165Z,23.30
2018-09-23T16:43:04.830Z,23.30
2018-09-23T16:45:36.499Z,23.20
2018-09-23T16:48:07.249Z,23.20
2018-09-23T16:50:40.533Z,23.20
2018-09-23T16:53:10.470Z,23.10
2018-09-23T16:55:41.157Z,23.10
2018-09-23T16:58:10.162Z,23.10
2018-09-23T17:00:42.944Z,23.10
2018-09-23T17:03:11.813Z,23.00
2018-09-23T17:05:40.823Z,23.00
2018-09-23T17:08:09.668Z,22.90
2018-09-23T17:10:38.669Z,22.90
2018-09-23T17:13:07.611Z,22.90
2018-09-23T17:15:36.420Z,22.90
2018-09-23T17:18:05.548Z,22.90
2018-09-23T17:20:34.383Z,22.90
2018-09-23T17:23:03.208Z,22.90
2018-09-23T17:25:32.113Z,22.80
2018-09-23T17:28:03.194Z,22.80
2018-09-23T17:30:32.088Z,22.80
2018-09-23T17:33:03.372Z,22.40
2018-09-23T17:35:32.965Z,21.60
2018-09-23T17:38:02.321Z,21.00
2018-09-23T17:40:31.497Z,20.70
2018-09-23T17:43:00.422Z,20.00
2018-09-23T17:45:29.565Z,19.00
2018-09-23T17:48:01.796Z,18.60
2018-09-23T17:50:31.052Z,18.40
2018-09-23T17:53:00.034Z,18.00
2018-09-23T17:55:29.016Z,17.80
2018-09-23T17:57:57.913Z,17.40
2018-09-23T18:00:26.773Z,17.20
2018-09-23T18:02:56.199Z,17.10
2018-09-23T18:05:25.141Z,17.10
2018-09-23T18:07:54.127Z,17.10
2018-09-23T18:10:23.038Z,17.20
2018-09-23T18:12:51.831Z,17.20
2018-09-23T18:15:37.735Z,17.20
2018-09-23T18:18:13.013Z,17.40
2018-09-23T18:20:42.132Z,17.30
2018-09-23T18:23:10.996Z,17.20
2018-09-23T18:25:41.830Z,17.10
2018-09-23T18:28:10.714Z,17.10
2018-09-23T18:30:39.478Z,17.10
2018-09-23T18:33:08.248Z,17.00
2018-09-23T18:35:40.672Z,17.00
2018-09-23T18:38:11.201Z,16.90
2018-09-23T18:40:42.344Z,16.80
2018-09-23T18:43:11.133Z,16.80
2018-09-23T18:45:39.915Z,16.70
2018-09-23T18:48:09.344Z,16.70
2018-09-23T18:50:38.472Z,16.60
2018-09-23T18:53:13.903Z,16.60
2018-09-23T18:55:45.148Z,16.50
2018-09-23T18:58:14.604Z,16.50
2018-09-23T19:00:43.560Z,16.30
2018-09-23T19:03:12.580Z,16.30
2018-09-23T19:05:41.736Z,16.10
2018-09-23T19:08:10.796Z,15.90
2018-09-23T19:10:39.855Z,15.90
2018-09-23T19:13:14.378Z,15.90
2018-09-23T19:15:44.359Z,15.80
2018-09-23T19:18:21.837Z,15.80
2018-09-23T19:20:50.781Z,15.70
2018-09-23T19:23:25.412Z,15.70
2018-09-23T19:26:00.154Z,15.70
2018-09-23T19:28:30.173Z,15.20
2018-09-23T19:30:59.057Z,14.70
2018-09-23T19:33:33.460Z,14.30
2018-09-23T19:36:02.406Z,14.10
2018-09-23T19:38:35.436Z,13.80
2018-09-23T19:41:04.290Z,13.60
2018-09-23T19:43:33.371Z,13.60
2018-09-23T19:46:04.006Z,13.50
2018-09-23T19:48:34.501Z,13.50
2018-09-23T19:51:04.581Z,13.40
2018-09-23T19:53:33.726Z,13.40
2018-09-23T19:56:02.714Z,13.40
2018-09-23T19:58:31.839Z,13.40
2018-09-23T20:01:01.113Z,13.20
2018-09-23T20:03:33.920Z,13.20
2018-09-23T20:06:05.066Z,13.20
2018-09-23T20:08:33.936Z,13.20
2018-09-23T20:11:02.942Z,13.20
2018-09-23T20:13:31.787Z,13.10
2018-09-23T20:16:00.585Z,13.00
2018-09-23T20:18:29.401Z,12.90
2018-09-23T20:20:58.184Z,12.80
2018-09-23T20:23:26.996Z,12.70
2018-09-23T20:25:55.887Z,12.70
2018-09-23T20:28:24.877Z,12.60
2018-09-23T20:30:54.925Z,12.60
2018-09-23T20:33:32.769Z,12.50
2018-09-23T20:36:05.591Z,12.50
2018-09-23T20:38:34.508Z,12.50
2018-09-23T20:41:03.341Z,12.50
2018-09-23T20:43:33.296Z,12.50
2018-09-23T20:46:02.131Z,12.40
2018-09-23T20:48:31.011Z,12.40
2018-09-23T20:50:59.896Z,12.30
2018-09-23T20:53:28.733Z,12.30
2018-09-23T20:55:57.608Z,12.30
2018-09-23T20:58:27.607Z,12.50
2018-09-23T21:00:56.515Z,12.20
2018-09-23T21:03:25.356Z,12.10
2018-09-23T21:05:54.144Z,12.20
2018-09-23T21:08:22.960Z,12.30
2018-09-23T21:10:51.929Z,12.20
2018-09-23T21:13:20.748Z,12.10
2018-09-23T21:15:49.558Z,12.00
2018-09-23T21:18:18.448Z,12.00
2018-09-23T21:20:51.900Z,12.00
2018-09-23T21:23:20.731Z,11.80
2018-09-23T21:25:49.823Z,11.80
2018-09-23T21:28:18.972Z,11.80
2018-09-23T21:30:47.741Z,11.90
2018-09-23T21:33:16.576Z,11.90
2018-09-23T21:35:45.481Z,11.90
2018-09-23T21:38:26.859Z,11.90
2018-09-23T21:40:55.654Z,11.90
2018-09-23T21:43:24.813Z,11.80
2018-09-23T21:45:53.601Z,11.80
2018-09-23T21:48:22.739Z,11.70
2018-09-23T21:50:51.584Z,11.60
2018-09-23T21:53:20.494Z,11.50
2018-09-23T21:55:49.311Z,11.40
2018-09-23T21:58:18.205Z,11.50
2018-09-23T22:00:47.061Z,11.60
2018-09-23T22:03:15.905Z,11.80
2018-09-23T22:05:44.733Z,11.80
2018-09-23T22:08:13.560Z,11.70
2018-09-23T22:10:42.375Z,11.70
2018-09-23T22:13:11.184Z,11.70
2018-09-23T22:15:39.984Z,11.80
2018-09-23T22:18:09.844Z,11.80
2018-09-23T22:20:38.746Z,12.00
2018-09-23T22:23:07.500Z,12.00
2018-09-23T22:25:36.312Z,12.00
2018-09-23T22:28:05.199Z,11.70
2018-09-23T22:30:37.204Z,11.80
2018-09-23T22:33:05.997Z,11.90
2018-09-23T22:35:34.805Z,11.70
2018-09-23T22:38:03.616Z,11.60
2018-09-23T22:40:32.434Z,11.60
2018-09-23T22:43:01.252Z,11.70
2018-09-23T22:45:30.068Z,11.60
2018-09-23T22:47:58.881Z,11.60
2018-09-23T22:50:27.692Z,11.60
2018-09-23T22:52:56.724Z,11.50
2018-09-23T22:55:25.677Z,11.50
2018-09-23T22:57:54.570Z,11.50
2018-09-23T23:00:23.458Z,11.40
2018-09-23T23:03:10.730Z,11.40
2018-09-23T23:05:39.667Z,11.50
2018-09-23T23:08:08.630Z,11.40
2018-09-23T23:10:37.456Z,11.40
2018-09-23T23:13:06.421Z,11.40
2018-09-23T23:15:35.320Z,11.40
2018-09-23T23:18:05.521Z,11.40
2018-09-23T23:20:34.414Z,11.30
2018-09-23T23:23:03.425Z,11.30
2018-09-23T23:25:32.308Z,11.40
2018-09-23T23:28:01.201Z,11.40
2018-09-23T23:30:30.318Z,11.30
2018-09-23T23:32:59.186Z,11.30
2018-09-23T23:35:28.116Z,11.30
2018-09-23T23:37:56.949Z,11.20
2018-09-23T23:40:25.785Z,11.30
2018-09-23T23:42:54.700Z,11.30
2018-09-23T23:45:23.549Z,11.30
2018-09-23T23:47:52.389Z,11.30
2018-09-23T23:50:21.280Z,11.20
2018-09-23T23:52:50.321Z,11.20
2018-09-23T23:55:19.204Z,11.20
2018-09-23T23:57:48.179Z,11.20
